sensor_id;sensor_type;location;lat;lon;timestamp;P1;durP1;ratioP1;P2;durP2;ratioP2
57667;SDS011;43499;52.366;12.912;2022-08-20T00:09:29;48.92;;;26.77;;
57667;SDS011;43499;52.366;12.912;2022-08-20T00:10:49;50.90;;;27.23;;
57667;SDS011;43499;52.366;12.912;2022-08-20T00:12:15;45.08;;;24.50;;
57667;SDS011;43499;52.366;12.912;2022-08-20T00:13:22;41.83;;;23.77;;
57667;SDS011;43499;52.366;12.912;2022-08-20T00:14:41;49.72;;;24.63;;
57667;SDS011;43499;52.366;12.912;2022-08-20T00:15:57;40.75;;;23.10;;
57667;SDS011;43499;52.366;12.912;2022-08-20T00:17:19;49.97;;;24.23;;
57667;SDS011;43499;52.366;12.912;2022-08-20T00:18:35;41.42;;;23.60;;
57667;SDS011;43499;52.366;12.912;2022-08-20T00:21:58;42.03;;;22.67;;
57667;SDS011;43499;52.366;12.912;2022-08-20T00:23:40;49.42;;;23.55;;
57667;SDS011;43499;52.366;12.912;2022-08-20T00:26:37;47.47;;;23.38;;
57667;SDS011;43499;52.366;12.912;2022-08-20T00:27:59;40.78;;;23.20;;
57667;SDS011;43499;52.366;12.912;2022-08-20T00:29:10;46.80;;;24.98;;
57667;SDS011;43499;52.366;12.912;2022-08-20T00:30:34;41.03;;;22.88;;
57667;SDS011;43499;52.366;12.912;2022-08-20T00:32:08;43.33;;;23.20;;
57667;SDS011;43499;52.366;12.912;2022-08-20T00:33:28;42.40;;;23.15;;
57667;SDS011;43499;52.366;12.912;2022-08-20T00:34:34;41.58;;;23.05;;
57667;SDS011;43499;52.366;12.912;2022-08-20T00:35:54;42.10;;;24.08;;
57667;SDS011;43499;52.366;12.912;2022-08-20T00:37:22;38.17;;;22.08;;
57667;SDS011;43499;52.366;12.912;2022-08-20T00:38:49;44.22;;;22.35;;
57667;SDS011;43499;52.366;12.912;2022-08-20T00:39:59;40.28;;;22.25;;
57667;SDS011;43499;52.366;12.912;2022-08-20T00:41:28;39.13;;;22.95;;
57667;SDS011;43499;52.366;12.912;2022-08-20T00:42:55;40.67;;;23.63;;
57667;SDS011;43499;52.366;12.912;2022-08-20T00:44:05;43.17;;;22.00;;
57667;SDS011;43499;52.366;12.912;2022-08-20T00:45:27;42.47;;;22.92;;
57667;SDS011;43499;52.366;12.912;2022-08-20T00:46:44;42.28;;;23.88;;
57667;SDS011;43499;52.366;12.912;2022-08-20T00:48:10;39.95;;;22.15;;
57667;SDS011;43499;52.366;12.912;2022-08-20T00:49:27;41.38;;;22.58;;
57667;SDS011;43499;52.366;12.912;2022-08-20T00:50:47;42.15;;;23.15;;
57667;SDS011;43499;52.366;12.912;2022-08-20T00:52:04;38.55;;;23.17;;
57667;SDS011;43499;52.366;12.912;2022-08-20T00:53:29;40.22;;;22.42;;
57667;SDS011;43499;52.366;12.912;2022-08-20T00:55:05;41.03;;;22.75;;
57667;SDS011;43499;52.366;12.912;2022-08-20T00:56:43;39.35;;;22.85;;
57667;SDS011;43499;52.366;12.912;2022-08-20T00:58:05;44.08;;;23.33;;
57667;SDS011;43499;52.366;12.912;2022-08-20T01:00:49;37.97;;;22.10;;
57667;SDS011;43499;52.366;12.912;2022-08-20T01:02:08;44.83;;;22.05;;
57667;SDS011;43499;52.366;12.912;2022-08-20T01:03:36;40.30;;;22.80;;
57667;SDS011;43499;52.366;12.912;2022-08-20T01:05:05;40.88;;;21.98;;
57667;SDS011;43499;52.366;12.912;2022-08-20T01:06:27;40.67;;;22.02;;
57667;SDS011;43499;52.366;12.912;2022-08-20T01:07:42;40.83;;;22.40;;
57667;SDS011;43499;52.366;12.912;2022-08-20T01:09:06;41.83;;;23.13;;
57667;SDS011;43499;52.366;12.912;2022-08-20T01:10:34;39.72;;;20.75;;
57667;SDS011;43499;52.366;12.912;2022-08-20T01:12:00;41.67;;;22.35;;
57667;SDS011;43499;52.366;12.912;2022-08-20T01:13:28;35.85;;;21.23;;
57667;SDS011;43499;52.366;12.912;2022-08-20T01:14:56;37.13;;;22.50;;
57667;SDS011;43499;52.366;12.912;2022-08-20T01:16:17;39.33;;;22.63;;
57667;SDS011;43499;52.366;12.912;2022-08-20T01:17:45;44.00;;;22.45;;
57667;SDS011;43499;52.366;12.912;2022-08-20T01:19:26;49.38;;;23.67;;
57667;SDS011;43499;52.366;12.912;2022-08-20T01:21:20;39.50;;;22.90;;
57667;SDS011;43499;52.366;12.912;2022-08-20T01:22:44;43.60;;;22.15;;
57667;SDS011;43499;52.366;12.912;2022-08-20T01:24:23;40.70;;;22.30;;
57667;SDS011;43499;52.366;12.912;2022-08-20T01:25:59;41.75;;;24.17;;
57667;SDS011;43499;52.366;12.912;2022-08-20T01:27:38;46.65;;;23.88;;
57667;SDS011;43499;52.366;12.912;2022-08-20T01:29:07;47.80;;;26.35;;
57667;SDS011;43499;52.366;12.912;2022-08-20T01:33:58;48.47;;;26.17;;
57667;SDS011;43499;52.366;12.912;2022-08-20T01:35:18;46.30;;;26.10;;
57667;SDS011;43499;52.366;12.912;2022-08-20T01:36:33;47.97;;;26.13;;
57667;SDS011;43499;52.366;12.912;2022-08-20T01:37:49;44.88;;;25.67;;
57667;SDS011;43499;52.366;12.912;2022-08-20T01:39:14;47.10;;;26.05;;
57667;SDS011;43499;52.366;12.912;2022-08-20T01:40:56;43.83;;;24.17;;
57667;SDS011;43499;52.366;12.912;2022-08-20T01:43:49;56.70;;;27.58;;
57667;SDS011;43499;52.366;12.912;2022-08-20T01:46:30;51.45;;;26.55;;
57667;SDS011;43499;52.366;12.912;2022-08-20T01:47:50;52.92;;;27.25;;
57667;SDS011;43499;52.366;12.912;2022-08-20T01:49:12;47.50;;;25.42;;
57667;SDS011;43499;52.366;12.912;2022-08-20T01:52:06;46.83;;;25.60;;
57667;SDS011;43499;52.366;12.912;2022-08-20T01:53:47;51.70;;;25.55;;
57667;SDS011;43499;52.366;12.912;2022-08-20T02:00:05;50.70;;;27.45;;
57667;SDS011;43499;52.366;12.912;2022-08-20T02:01:29;48.17;;;26.00;;
57667;SDS011;43499;52.366;12.912;2022-08-20T02:03:02;55.67;;;26.15;;
57667;SDS011;43499;52.366;12.912;2022-08-20T02:04:34;55.47;;;27.80;;
57667;SDS011;43499;52.366;12.912;2022-08-20T02:06:06;52.50;;;26.90;;
57667;SDS011;43499;52.366;12.912;2022-08-20T02:07:21;57.67;;;26.58;;
57667;SDS011;43499;52.366;12.912;2022-08-20T02:08:37;47.28;;;26.55;;
57667;SDS011;43499;52.366;12.912;2022-08-20T02:09:52;52.20;;;24.75;;
57667;SDS011;43499;52.366;12.912;2022-08-20T02:13:30;50.22;;;26.52;;
57667;SDS011;43499;52.366;12.912;2022-08-20T02:14:40;52.72;;;24.88;;
57667;SDS011;43499;52.366;12.912;2022-08-20T02:16:03;52.40;;;27.43;;
57667;SDS011;43499;52.366;12.912;2022-08-20T02:17:39;45.60;;;25.02;;
57667;SDS011;43499;52.366;12.912;2022-08-20T02:18:50;44.30;;;25.60;;
57667;SDS011;43499;52.366;12.912;2022-08-20T02:20:27;46.20;;;25.83;;
57667;SDS011;43499;52.366;12.912;2022-08-20T02:21:50;45.30;;;25.08;;
57667;SDS011;43499;52.366;12.912;2022-08-20T02:23:25;50.90;;;25.38;;
57667;SDS011;43499;52.366;12.912;2022-08-20T02:24:35;49.97;;;25.90;;
57667;SDS011;43499;52.366;12.912;2022-08-20T02:25:44;51.78;;;25.65;;
57667;SDS011;43499;52.366;12.912;2022-08-20T02:27:03;44.45;;;23.25;;
57667;SDS011;43499;52.366;12.912;2022-08-20T02:31:43;48.78;;;25.83;;
57667;SDS011;43499;52.366;12.912;2022-08-20T02:33:28;52.35;;;26.23;;
57667;SDS011;43499;52.366;12.912;2022-08-20T02:34:36;53.83;;;25.10;;
57667;SDS011;43499;52.366;12.912;2022-08-20T02:36:00;45.30;;;24.13;;
57667;SDS011;43499;52.366;12.912;2022-08-20T02:37:30;43.22;;;24.85;;
57667;SDS011;43499;52.366;12.912;2022-08-20T02:39:07;48.10;;;25.00;;
57667;SDS011;43499;52.366;12.912;2022-08-20T02:40:32;51.45;;;25.50;;
57667;SDS011;43499;52.366;12.912;2022-08-20T02:41:43;50.70;;;26.10;;
57667;SDS011;43499;52.366;12.912;2022-08-20T02:44:24;50.10;;;27.00;;
57667;SDS011;43499;52.366;12.912;2022-08-20T02:46:03;51.40;;;25.10;;
57667;SDS011;43499;52.366;12.912;2022-08-20T02:50:28;48.70;;;25.02;;
57667;SDS011;43499;52.366;12.912;2022-08-20T02:51:44;48.83;;;25.98;;
57667;SDS011;43499;52.366;12.912;2022-08-20T02:53:00;50.70;;;26.50;;
57667;SDS011;43499;52.366;12.912;2022-08-20T02:55:51;55.80;;;28.48;;
57667;SDS011;43499;52.366;12.912;2022-08-20T02:56:56;55.58;;;27.58;;
57667;SDS011;43499;52.366;12.912;2022-08-20T02:58:24;59.60;;;28.25;;
57667;SDS011;43499;52.366;12.912;2022-08-20T02:59:37;56.58;;;26.88;;
57667;SDS011;43499;52.366;12.912;2022-08-20T03:04:16;59.42;;;27.90;;
57667;SDS011;43499;52.366;12.912;2022-08-20T03:05:23;51.45;;;27.88;;
57667;SDS011;43499;52.366;12.912;2022-08-20T03:06:52;54.25;;;27.35;;
57667;SDS011;43499;52.366;12.912;2022-08-20T03:08:11;52.72;;;28.00;;
57667;SDS011;43499;52.366;12.912;2022-08-20T03:09:54;51.95;;;27.95;;
57667;SDS011;43499;52.366;12.912;2022-08-20T03:11:01;52.95;;;26.70;;
57667;SDS011;43499;52.366;12.912;2022-08-20T03:12:25;51.58;;;27.25;;
57667;SDS011;43499;52.366;12.912;2022-08-20T03:13:46;52.58;;;27.25;;
57667;SDS011;43499;52.366;12.912;2022-08-20T03:15:11;60.58;;;30.08;;
57667;SDS011;43499;52.366;12.912;2022-08-20T03:16:25;54.35;;;27.38;;
57667;SDS011;43499;52.366;12.912;2022-08-20T03:17:44;58.75;;;26.65;;
57667;SDS011;43499;52.366;12.912;2022-08-20T03:18:56;49.03;;;27.73;;
57667;SDS011;43499;52.366;12.912;2022-08-20T03:20:42;53.33;;;28.08;;
57667;SDS011;43499;52.366;12.912;2022-08-20T03:26:42;52.65;;;27.38;;
57667;SDS011;43499;52.366;12.912;2022-08-20T03:28:15;52.75;;;26.95;;
57667;SDS011;43499;52.366;12.912;2022-08-20T03:29:37;64.70;;;29.13;;
57667;SDS011;43499;52.366;12.912;2022-08-20T03:30:53;63.05;;;26.98;;
57667;SDS011;43499;52.366;12.912;2022-08-20T03:32:34;58.75;;;28.13;;
57667;SDS011;43499;52.366;12.912;2022-08-20T03:33:44;55.92;;;29.25;;
57667;SDS011;43499;52.366;12.912;2022-08-20T03:35:15;56.22;;;28.95;;
57667;SDS011;43499;52.366;12.912;2022-08-20T03:36:48;63.45;;;28.98;;
57667;SDS011;43499;52.366;12.912;2022-08-20T03:38:07;58.08;;;29.52;;
57667;SDS011;43499;52.366;12.912;2022-08-20T03:39:34;65.22;;;31.10;;
57667;SDS011;43499;52.366;12.912;2022-08-20T03:41:02;61.15;;;29.75;;
57667;SDS011;43499;52.366;12.912;2022-08-20T03:43:56;61.35;;;31.10;;
57667;SDS011;43499;52.366;12.912;2022-08-20T03:45:31;58.42;;;30.40;;
57667;SDS011;43499;52.366;12.912;2022-08-20T03:47:04;61.75;;;31.20;;
57667;SDS011;43499;52.366;12.912;2022-08-20T03:48:24;58.83;;;30.33;;
57667;SDS011;43499;52.366;12.912;2022-08-20T03:49:38;62.15;;;31.10;;
57667;SDS011;43499;52.366;12.912;2022-08-20T03:50:43;64.47;;;32.38;;
57667;SDS011;43499;52.366;12.912;2022-08-20T03:51:55;65.00;;;32.17;;
57667;SDS011;43499;52.366;12.912;2022-08-20T03:54:46;60.75;;;28.55;;
57667;SDS011;43499;52.366;12.912;2022-08-20T03:55:55;60.75;;;30.83;;
57667;SDS011;43499;52.366;12.912;2022-08-20T03:57:14;61.10;;;29.27;;
57667;SDS011;43499;52.366;12.912;2022-08-20T03:58:46;53.42;;;28.95;;
57667;SDS011;43499;52.366;12.912;2022-08-20T04:00:34;57.30;;;29.48;;
57667;SDS011;43499;52.366;12.912;2022-08-20T04:02:24;60.95;;;30.83;;
57667;SDS011;43499;52.366;12.912;2022-08-20T04:03:55;54.80;;;28.27;;
57667;SDS011;43499;52.366;12.912;2022-08-20T04:05:07;55.97;;;28.73;;
57667;SDS011;43499;52.366;12.912;2022-08-20T04:06:31;70.45;;;33.00;;
57667;SDS011;43499;52.366;12.912;2022-08-20T04:07:50;59.38;;;30.02;;
57667;SDS011;43499;52.366;12.912;2022-08-20T04:09:14;63.13;;;30.92;;
57667;SDS011;43499;52.366;12.912;2022-08-20T04:10:32;60.75;;;29.52;;
57667;SDS011;43499;52.366;12.912;2022-08-20T04:12:03;64.00;;;31.15;;
57667;SDS011;43499;52.366;12.912;2022-08-20T04:13:28;62.85;;;29.05;;
57667;SDS011;43499;52.366;12.912;2022-08-20T04:14:50;60.13;;;30.85;;
57667;SDS011;43499;52.366;12.912;2022-08-20T04:16:09;57.58;;;28.77;;
57667;SDS011;43499;52.366;12.912;2022-08-20T04:17:21;57.92;;;29.92;;
57667;SDS011;43499;52.366;12.912;2022-08-20T04:18:43;55.72;;;29.15;;
57667;SDS011;43499;52.366;12.912;2022-08-20T04:20:27;54.97;;;30.73;;
57667;SDS011;43499;52.366;12.912;2022-08-20T04:21:49;58.45;;;29.00;;
57667;SDS011;43499;52.366;12.912;2022-08-20T04:23:00;64.93;;;29.58;;
57667;SDS011;43499;52.366;12.912;2022-08-20T04:25:31;67.40;;;32.58;;
57667;SDS011;43499;52.366;12.912;2022-08-20T04:27:12;54.97;;;29.45;;
57667;SDS011;43499;52.366;12.912;2022-08-20T04:28:41;58.85;;;29.75;;
57667;SDS011;43499;52.366;12.912;2022-08-20T04:30:59;61.63;;;29.63;;
57667;SDS011;43499;52.366;12.912;2022-08-20T04:32:24;62.47;;;31.02;;
57667;SDS011;43499;52.366;12.912;2022-08-20T04:33:48;59.40;;;30.05;;
57667;SDS011;43499;52.366;12.912;2022-08-20T04:35:19;64.32;;;30.33;;
57667;SDS011;43499;52.366;12.912;2022-08-20T04:36:42;61.30;;;29.75;;
57667;SDS011;43499;52.366;12.912;2022-08-20T04:38:08;60.58;;;29.30;;
57667;SDS011;43499;52.366;12.912;2022-08-20T04:39:29;60.97;;;30.33;;
57667;SDS011;43499;52.366;12.912;2022-08-20T04:41:03;59.63;;;30.00;;
57667;SDS011;43499;52.366;12.912;2022-08-20T04:42:40;60.45;;;30.65;;
57667;SDS011;43499;52.366;12.912;2022-08-20T04:43:57;56.38;;;30.40;;
57667;SDS011;43499;52.366;12.912;2022-08-20T04:45:12;62.10;;;30.70;;
57667;SDS011;43499;52.366;12.912;2022-08-20T04:46:35;57.80;;;30.75;;
57667;SDS011;43499;52.366;12.912;2022-08-20T04:47:59;60.35;;;30.50;;
57667;SDS011;43499;52.366;12.912;2022-08-20T04:49:32;56.65;;;30.55;;
57667;SDS011;43499;52.366;12.912;2022-08-20T04:50:39;54.97;;;30.40;;
57667;SDS011;43499;52.366;12.912;2022-08-20T04:51:50;62.45;;;29.95;;
57667;SDS011;43499;52.366;12.912;2022-08-20T04:53:03;58.80;;;30.13;;
57667;SDS011;43499;52.366;12.912;2022-08-20T04:56:13;62.53;;;29.25;;
57667;SDS011;43499;52.366;12.912;2022-08-20T04:57:23;57.15;;;28.58;;
57667;SDS011;43499;52.366;12.912;2022-08-20T04:58:54;56.38;;;29.90;;
57667;SDS011;43499;52.366;12.912;2022-08-20T05:00:15;57.70;;;29.42;;
57667;SDS011;43499;52.366;12.912;2022-08-20T05:01:40;56.90;;;30.85;;
57667;SDS011;43499;52.366;12.912;2022-08-20T05:02:50;55.75;;;28.67;;
57667;SDS011;43499;52.366;12.912;2022-08-20T05:04:12;53.67;;;27.65;;
57667;SDS011;43499;52.366;12.912;2022-08-20T05:05:56;56.13;;;27.85;;
57667;SDS011;43499;52.366;12.912;2022-08-20T05:07:31;51.78;;;27.65;;
57667;SDS011;43499;52.366;12.912;2022-08-20T05:08:50;61.05;;;29.65;;
57667;SDS011;43499;52.366;12.912;2022-08-20T05:10:20;48.92;;;28.05;;
57667;SDS011;43499;52.366;12.912;2022-08-20T05:11:48;58.58;;;29.88;;
57667;SDS011;43499;52.366;12.912;2022-08-20T05:14:39;50.80;;;27.35;;
57667;SDS011;43499;52.366;12.912;2022-08-20T05:16:04;57.70;;;29.98;;
57667;SDS011;43499;52.366;12.912;2022-08-20T05:17:09;60.15;;;30.17;;
57667;SDS011;43499;52.366;12.912;2022-08-20T05:18:37;53.58;;;29.40;;
57667;SDS011;43499;52.366;12.912;2022-08-20T05:20:01;63.83;;;30.45;;
57667;SDS011;43499;52.366;12.912;2022-08-20T05:25:03;53.67;;;27.83;;
57667;SDS011;43499;52.366;12.912;2022-08-20T05:26:28;57.25;;;30.80;;
57667;SDS011;43499;52.366;12.912;2022-08-20T05:28:02;65.80;;;29.30;;
57667;SDS011;43499;52.366;12.912;2022-08-20T05:29:24;53.08;;;27.17;;
57667;SDS011;43499;52.366;12.912;2022-08-20T05:31:08;53.92;;;28.00;;
57667;SDS011;43499;52.366;12.912;2022-08-20T05:32:40;54.60;;;27.63;;
57667;SDS011;43499;52.366;12.912;2022-08-20T05:33:42;59.30;;;30.27;;
57667;SDS011;43499;52.366;12.912;2022-08-20T05:35:06;54.72;;;29.05;;
57667;SDS011;43499;52.366;12.912;2022-08-20T05:38:05;60.20;;;30.02;;
57667;SDS011;43499;52.366;12.912;2022-08-20T05:39:46;58.03;;;27.30;;
57667;SDS011;43499;52.366;12.912;2022-08-20T05:41:16;65.40;;;30.05;;
57667;SDS011;43499;52.366;12.912;2022-08-20T05:42:33;57.30;;;29.55;;
57667;SDS011;43499;52.366;12.912;2022-08-20T05:43:55;68.57;;;30.45;;
57667;SDS011;43499;52.366;12.912;2022-08-20T05:45:30;69.20;;;31.52;;
57667;SDS011;43499;52.366;12.912;2022-08-20T05:46:53;61.05;;;30.42;;
57667;SDS011;43499;52.366;12.912;2022-08-20T05:48:10;57.13;;;30.65;;
57667;SDS011;43499;52.366;12.912;2022-08-20T05:49:29;58.45;;;31.13;;
57667;SDS011;43499;52.366;12.912;2022-08-20T05:50:56;60.83;;;30.50;;
57667;SDS011;43499;52.366;12.912;2022-08-20T05:52:18;61.88;;;30.85;;
57667;SDS011;43499;52.366;12.912;2022-08-20T05:53:44;63.88;;;29.65;;
57667;SDS011;43499;52.366;12.912;2022-08-20T05:55:20;58.47;;;30.88;;
57667;SDS011;43499;52.366;12.912;2022-08-20T05:56:43;62.72;;;31.73;;
57667;SDS011;43499;52.366;12.912;2022-08-20T05:58:21;58.60;;;30.30;;
57667;SDS011;43499;52.366;12.912;2022-08-20T05:59:28;56.25;;;28.67;;
57667;SDS011;43499;52.366;12.912;2022-08-20T06:01:02;59.30;;;28.98;;
57667;SDS011;43499;52.366;12.912;2022-08-20T06:02:14;61.78;;;30.25;;
57667;SDS011;43499;52.366;12.912;2022-08-20T06:03:49;56.00;;;29.23;;
57667;SDS011;43499;52.366;12.912;2022-08-20T06:05:23;59.90;;;29.38;;
57667;SDS011;43499;52.366;12.912;2022-08-20T06:06:28;57.22;;;28.27;;
57667;SDS011;43499;52.366;12.912;2022-08-20T06:07:43;55.63;;;29.85;;
57667;SDS011;43499;52.366;12.912;2022-08-20T06:09:07;55.17;;;26.45;;
57667;SDS011;43499;52.366;12.912;2022-08-20T06:10:26;56.35;;;29.60;;
57667;SDS011;43499;52.366;12.912;2022-08-20T06:11:52;56.10;;;30.65;;
57667;SDS011;43499;52.366;12.912;2022-08-20T06:13:23;60.17;;;29.95;;
57667;SDS011;43499;52.366;12.912;2022-08-20T06:14:41;62.03;;;30.77;;
57667;SDS011;43499;52.366;12.912;2022-08-20T06:15:50;57.22;;;31.58;;
57667;SDS011;43499;52.366;12.912;2022-08-20T06:17:10;59.60;;;31.23;;
57667;SDS011;43499;52.366;12.912;2022-08-20T06:18:27;60.28;;;30.30;;
57667;SDS011;43499;52.366;12.912;2022-08-20T06:19:51;58.55;;;28.13;;
57667;SDS011;43499;52.366;12.912;2022-08-20T06:21:13;62.87;;;31.93;;
57667;SDS011;43499;52.366;12.912;2022-08-20T06:22:23;58.22;;;31.15;;
57667;SDS011;43499;52.366;12.912;2022-08-20T06:24:08;61.63;;;31.73;;
57667;SDS011;43499;52.366;12.912;2022-08-20T06:25:32;63.63;;;32.53;;
57667;SDS011;43499;52.366;12.912;2022-08-20T06:27:11;63.30;;;31.77;;
57667;SDS011;43499;52.366;12.912;2022-08-20T06:28:31;57.83;;;30.92;;
57667;SDS011;43499;52.366;12.912;2022-08-20T06:29:40;68.00;;;33.40;;
57667;SDS011;43499;52.366;12.912;2022-08-20T06:31:20;62.63;;;30.00;;
57667;SDS011;43499;52.366;12.912;2022-08-20T06:32:40;66.25;;;32.80;;
57667;SDS011;43499;52.366;12.912;2022-08-20T06:34:00;71.53;;;32.55;;
57667;SDS011;43499;52.366;12.912;2022-08-20T06:35:43;59.35;;;31.75;;
57667;SDS011;43499;52.366;12.912;2022-08-20T06:37:15;60.33;;;30.83;;
57667;SDS011;43499;52.366;12.912;2022-08-20T06:38:29;55.53;;;30.52;;
57667;SDS011;43499;52.366;12.912;2022-08-20T06:39:44;57.17;;;30.85;;
57667;SDS011;43499;52.366;12.912;2022-08-20T06:48:10;65.68;;;31.30;;
57667;SDS011;43499;52.366;12.912;2022-08-20T06:49:35;58.17;;;32.25;;
57667;SDS011;43499;52.366;12.912;2022-08-20T06:50:44;60.28;;;31.45;;
57667;SDS011;43499;52.366;12.912;2022-08-20T06:52:03;61.22;;;33.42;;
57667;SDS011;43499;52.366;12.912;2022-08-20T06:53:32;63.35;;;34.03;;
57667;SDS011;43499;52.366;12.912;2022-08-20T06:54:42;68.28;;;33.17;;
57667;SDS011;43499;52.366;12.912;2022-08-20T06:56:08;69.25;;;33.95;;
57667;SDS011;43499;52.366;12.912;2022-08-20T06:57:19;65.47;;;33.30;;
57667;SDS011;43499;52.366;12.912;2022-08-20T06:58:29;62.00;;;33.72;;
57667;SDS011;43499;52.366;12.912;2022-08-20T06:59:53;62.55;;;33.17;;
57667;SDS011;43499;52.366;12.912;2022-08-20T07:01:04;63.08;;;32.90;;
57667;SDS011;43499;52.366;12.912;2022-08-20T07:02:23;65.28;;;32.25;;
57667;SDS011;43499;52.366;12.912;2022-08-20T07:09:32;66.32;;;32.20;;
57667;SDS011;43499;52.366;12.912;2022-08-20T07:11:16;63.35;;;29.90;;
57667;SDS011;43499;52.366;12.912;2022-08-20T07:12:33;69.95;;;31.25;;
57667;SDS011;43499;52.366;12.912;2022-08-20T07:15:46;56.90;;;31.42;;
57667;SDS011;43499;52.366;12.912;2022-08-20T07:17:25;60.20;;;31.55;;
57667;SDS011;43499;52.366;12.912;2022-08-20T07:20:53;60.55;;;29.02;;
57667;SDS011;43499;52.366;12.912;2022-08-20T07:21:31;61.17;;;32.03;;
57667;SDS011;43499;52.366;12.912;2022-08-20T07:28:29;59.47;;;31.85;;
57667;SDS011;43499;52.366;12.912;2022-08-20T07:31:36;57.45;;;32.72;;
57667;SDS011;43499;52.366;12.912;2022-08-20T07:33:31;53.72;;;31.10;;
57667;SDS011;43499;52.366;12.912;2022-08-20T07:34:59;52.30;;;28.15;;
57667;SDS011;43499;52.366;12.912;2022-08-20T07:36:27;59.22;;;32.60;;
57667;SDS011;43499;52.366;12.912;2022-08-20T07:38:03;64.00;;;33.00;;
57667;SDS011;43499;52.366;12.912;2022-08-20T07:40:05;61.70;;;31.92;;
57667;SDS011;43499;52.366;12.912;2022-08-20T07:43:38;55.97;;;30.35;;
57667;SDS011;43499;52.366;12.912;2022-08-20T07:45:21;56.65;;;30.05;;
57667;SDS011;43499;52.366;12.912;2022-08-20T07:46:46;54.38;;;29.58;;
57667;SDS011;43499;52.366;12.912;2022-08-20T07:48:24;54.55;;;30.60;;
57667;SDS011;43499;52.366;12.912;2022-08-20T07:51:33;52.97;;;29.40;;
57667;SDS011;43499;52.366;12.912;2022-08-20T07:54:51;58.22;;;28.60;;
57667;SDS011;43499;52.366;12.912;2022-08-20T07:56:11;51.97;;;28.30;;
57667;SDS011;43499;52.366;12.912;2022-08-20T08:01:24;53.72;;;29.25;;
57667;SDS011;43499;52.366;12.912;2022-08-20T08:02:44;51.20;;;27.67;;
57667;SDS011;43499;52.366;12.912;2022-08-20T08:04:41;55.67;;;28.55;;
57667;SDS011;43499;52.366;12.912;2022-08-20T08:06:04;48.40;;;28.27;;
57667;SDS011;43499;52.366;12.912;2022-08-20T08:09:28;52.78;;;28.05;;
57667;SDS011;43499;52.366;12.912;2022-08-20T08:11:10;51.42;;;28.00;;
57667;SDS011;43499;52.366;12.912;2022-08-20T08:12:50;44.78;;;25.48;;
57667;SDS011;43499;52.366;12.912;2022-08-20T08:14:45;58.22;;;27.05;;
57667;SDS011;43499;52.366;12.912;2022-08-20T08:16:15;46.42;;;26.63;;
57667;SDS011;43499;52.366;12.912;2022-08-20T08:17:37;47.72;;;24.85;;
57667;SDS011;43499;52.366;12.912;2022-08-20T08:19:24;40.80;;;24.67;;
57667;SDS011;43499;52.366;12.912;2022-08-20T08:20:38;43.58;;;24.13;;
57667;SDS011;43499;52.366;12.912;2022-08-20T08:22:22;44.03;;;24.00;;
57667;SDS011;43499;52.366;12.912;2022-08-20T08:23:34;44.58;;;24.55;;
57667;SDS011;43499;52.366;12.912;2022-08-20T08:24:56;43.80;;;24.33;;
57667;SDS011;43499;52.366;12.912;2022-08-20T08:26:16;40.25;;;24.27;;
57667;SDS011;43499;52.366;12.912;2022-08-20T08:29:28;34.40;;;21.52;;
57667;SDS011;43499;52.366;12.912;2022-08-20T08:31:04;38.38;;;22.75;;
57667;SDS011;43499;52.366;12.912;2022-08-20T08:33:00;44.30;;;23.58;;
57667;SDS011;43499;52.366;12.912;2022-08-20T08:34:34;40.85;;;21.85;;
57667;SDS011;43499;52.366;12.912;2022-08-20T08:36:18;42.42;;;22.23;;
57667;SDS011;43499;52.366;12.912;2022-08-20T08:37:51;37.53;;;22.00;;
57667;SDS011;43499;52.366;12.912;2022-08-20T08:43:46;32.20;;;19.13;;
57667;SDS011;43499;52.366;12.912;2022-08-20T08:45:04;37.53;;;19.05;;
57667;SDS011;43499;52.366;12.912;2022-08-20T08:47:13;30.00;;;16.98;;
57667;SDS011;43499;52.366;12.912;2022-08-20T08:50:35;30.38;;;17.00;;
57667;SDS011;43499;52.366;12.912;2022-08-20T08:52:28;26.88;;;15.02;;
57667;SDS011;43499;52.366;12.912;2022-08-20T08:59:12;30.98;;;18.50;;
57667;SDS011;43499;52.366;12.912;2022-08-20T09:01:07;24.67;;;15.70;;
57667;SDS011;43499;52.366;12.912;2022-08-20T09:02:52;31.10;;;15.55;;
57667;SDS011;43499;52.366;12.912;2022-08-20T09:04:38;27.38;;;16.05;;
57667;SDS011;43499;52.366;12.912;2022-08-20T09:08:15;27.95;;;15.57;;
57667;SDS011;43499;52.366;12.912;2022-08-20T09:09:45;26.25;;;15.70;;
57667;SDS011;43499;52.366;12.912;2022-08-20T09:13:19;28.65;;;15.77;;
57667;SDS011;43499;52.366;12.912;2022-08-20T09:14:22;23.67;;;16.23;;
57667;SDS011;43499;52.366;12.912;2022-08-20T09:16:24;23.08;;;14.48;;
57667;SDS011;43499;52.366;12.912;2022-08-20T09:17:27;27.35;;;15.30;;
57667;SDS011;43499;52.366;12.912;2022-08-20T09:18:28;26.48;;;16.02;;
57667;SDS011;43499;52.366;12.912;2022-08-20T09:19:33;21.77;;;15.23;;
57667;SDS011;43499;52.366;12.912;2022-08-20T09:20:35;27.55;;;15.90;;
57667;SDS011;43499;52.366;12.912;2022-08-20T09:21:37;25.98;;;16.75;;
57667;SDS011;43499;52.366;12.912;2022-08-20T09:22:38;24.00;;;15.63;;
57667;SDS011;43499;52.366;12.912;2022-08-20T09:23:41;22.42;;;15.55;;
57667;SDS011;43499;52.366;12.912;2022-08-20T09:24:44;26.38;;;15.13;;
57667;SDS011;43499;52.366;12.912;2022-08-20T09:25:46;29.88;;;16.55;;
57667;SDS011;43499;52.366;12.912;2022-08-20T09:26:49;26.35;;;16.33;;
57667;SDS011;43499;52.366;12.912;2022-08-20T09:27:50;22.02;;;13.98;;
57667;SDS011;43499;52.366;12.912;2022-08-20T09:28:52;26.90;;;16.15;;
57667;SDS011;43499;52.366;12.912;2022-08-20T09:29:56;26.67;;;17.15;;
57667;SDS011;43499;52.366;12.912;2022-08-20T09:31:03;26.33;;;16.48;;
57667;SDS011;43499;52.366;12.912;2022-08-20T09:32:06;23.50;;;15.63;;
57667;SDS011;43499;52.366;12.912;2022-08-20T09:33:10;30.67;;;17.88;;
57667;SDS011;43499;52.366;12.912;2022-08-20T09:34:11;24.55;;;16.38;;
57667;SDS011;43499;52.366;12.912;2022-08-20T09:35:14;27.88;;;15.88;;
57667;SDS011;43499;52.366;12.912;2022-08-20T09:36:15;25.60;;;15.40;;
57667;SDS011;43499;52.366;12.912;2022-08-20T09:37:17;29.20;;;16.00;;
57667;SDS011;43499;52.366;12.912;2022-08-20T09:38:21;24.25;;;15.05;;
57667;SDS011;43499;52.366;12.912;2022-08-20T09:39:23;21.33;;;14.23;;
57667;SDS011;43499;52.366;12.912;2022-08-20T09:40:24;26.35;;;14.85;;
57667;SDS011;43499;52.366;12.912;2022-08-20T09:41:27;25.48;;;15.65;;
57667;SDS011;43499;52.366;12.912;2022-08-20T09:42:29;20.45;;;15.07;;
57667;SDS011;43499;52.366;12.912;2022-08-20T09:43:33;22.40;;;14.98;;
57667;SDS011;43499;52.366;12.912;2022-08-20T09:44:35;23.52;;;14.57;;
57667;SDS011;43499;52.366;12.912;2022-08-20T09:45:37;22.90;;;14.18;;
57667;SDS011;43499;52.366;12.912;2022-08-20T09:46:38;25.65;;;14.00;;
57667;SDS011;43499;52.366;12.912;2022-08-20T09:47:42;21.95;;;13.80;;
57667;SDS011;43499;52.366;12.912;2022-08-20T09:48:43;21.67;;;13.55;;
57667;SDS011;43499;52.366;12.912;2022-08-20T09:49:46;21.30;;;13.45;;
57667;SDS011;43499;52.366;12.912;2022-08-20T09:50:48;23.20;;;12.70;;